createdAt,value
2022-12-25T00:01:17.840Z,5.87
2022-12-25T00:03:45.046Z,5.81
2022-12-25T00:06:12.226Z,5.76
2022-12-25T00:08:40.347Z,5.75
2022-12-25T00:11:10.815Z,5.72
2022-12-25T00:13:38.464Z,5.69
2022-12-25T00:16:13.455Z,5.68
2022-12-25T00:18:40.526Z,5.61
2022-12-25T00:21:07.615Z,5.61
2022-12-25T00:23:35.430Z,5.63
2022-12-25T00:26:11.135Z,5.61
2022-12-25T00:28:38.345Z,5.59
2022-12-25T00:31:11.214Z,5.58
2022-12-25T00:33:40.270Z,5.56
2022-12-25T00:36:08.482Z,5.54
2022-12-25T00:38:36.917Z,5.54
2022-12-25T00:41:12.189Z,5.54
2022-12-25T00:43:41.707Z,5.50
2022-12-25T00:46:10.446Z,5.47
2022-12-25T00:48:37.651Z,5.43
2022-12-25T00:51:07.052Z,5.39
2022-12-25T00:53:34.106Z,5.36
2022-12-25T00:56:05.784Z,5.29
2022-12-25T00:58:34.665Z,5.23
2022-12-25T01:01:02.937Z,5.17
2022-12-25T01:03:31.524Z,5.12
2022-12-25T01:06:00.976Z,5.01
2022-12-25T01:08:30.235Z,4.95
2022-12-25T01:10:58.998Z,4.89
2022-12-25T01:13:26.319Z,4.77
2022-12-25T01:15:54.363Z,4.75
2022-12-25T01:18:22.890Z,4.68
2022-12-25T01:20:50.089Z,4.62
2022-12-25T01:23:17.168Z,4.55
2022-12-25T01:25:44.222Z,4.48
2022-12-25T01:28:11.292Z,4.39
2022-12-25T01:30:39.468Z,4.33
2022-12-25T01:33:06.664Z,4.26
2022-12-25T01:35:33.728Z,4.20
2022-12-25T01:38:00.930Z,4.17
2022-12-25T01:40:28.083Z,4.07
2022-12-25T01:42:55.168Z,4.00
2022-12-25T01:45:41.206Z,3.92
2022-12-25T01:48:13.317Z,3.87
2022-12-25T01:50:42.521Z,3.82
2022-12-25T01:53:09.759Z,3.76
2022-12-25T01:55:37.572Z,3.68
2022-12-25T01:58:04.795Z,3.64
2022-12-25T02:00:31.976Z,3.58
2022-12-25T02:02:59.223Z,3.49
2022-12-25T02:05:29.941Z,3.44
2022-12-25T02:08:01.325Z,3.42
2022-12-25T02:10:28.754Z,3.39
2022-12-25T02:12:56.155Z,3.32
2022-12-25T02:15:28.102Z,3.28
2022-12-25T02:18:07.206Z,3.20
2022-12-25T02:20:41.593Z,3.14
2022-12-25T02:23:56.882Z,3.08
2022-12-25T02:26:33.102Z,3.02
2022-12-25T02:29:05.321Z,2.99
2022-12-25T02:31:40.006Z,2.92
2022-12-25T02:34:30.183Z,2.87
2022-12-25T02:37:06.245Z,2.81
2022-12-25T02:39:58.866Z,2.80
2022-12-25T02:43:02.850Z,2.77
2022-12-25T02:45:54.698Z,2.65
2022-12-25T02:48:42.745Z,2.57
2022-12-25T02:51:35.473Z,2.50
2022-12-25T02:54:25.494Z,2.47
2022-12-25T02:57:12.979Z,2.42
2022-12-25T02:59:59.255Z,2.35
2022-12-25T03:02:46.731Z,2.34
2022-12-25T03:05:34.893Z,2.21
2022-12-25T03:08:05.848Z,2.14
2022-12-25T03:10:53.809Z,2.15
2022-12-25T03:13:23.659Z,2.10
2022-12-25T03:16:09.269Z,2.12
2022-12-25T03:18:36.724Z,2.07
2022-12-25T03:21:22.530Z,2.06
2022-12-25T03:24:09.608Z,2.11
2022-12-25T03:26:55.220Z,2.09
2022-12-25T03:29:46.041Z,2.05
2022-12-25T03:32:25.914Z,2.00
2022-12-25T03:35:20.247Z,2.00
2022-12-25T03:38:15.102Z,1.96
2022-12-25T03:41:11.563Z,1.95
2022-12-25T03:44:08.686Z,1.85
2022-12-25T03:46:55.793Z,1.82
2022-12-25T03:49:45.750Z,1.76
2022-12-25T03:52:33.442Z,1.77
2022-12-25T03:55:21.889Z,1.77
2022-12-25T03:58:07.735Z,1.77
2022-12-25T04:00:53.128Z,1.77
2022-12-25T04:03:38.863Z,1.76
2022-12-25T04:06:24.709Z,1.70
2022-12-25T04:09:10.729Z,1.68
2022-12-25T04:12:02.237Z,1.70
2022-12-25T04:14:49.091Z,1.53
2022-12-25T04:17:34.657Z,1.53
2022-12-25T04:20:20.196Z,1.53
2022-12-25T04:23:05.809Z,1.47
2022-12-25T04:25:51.242Z,1.48
2022-12-25T04:28:41.227Z,1.49
2022-12-25T04:31:26.966Z,1.52
2022-12-25T04:34:12.640Z,1.51
2022-12-25T04:36:39.707Z,1.49
2022-12-25T04:39:06.770Z,1.49
2022-12-25T04:41:33.872Z,1.50
2022-12-25T04:44:00.915Z,1.49
2022-12-25T04:46:28.064Z,1.49
2022-12-25T04:48:55.190Z,1.51
2022-12-25T04:51:24.285Z,1.54
2022-12-25T04:53:52.745Z,1.55
2022-12-25T04:56:20.412Z,1.59
2022-12-25T04:58:47.469Z,1.62
2022-12-25T05:01:15.241Z,1.61
2022-12-25T05:03:42.726Z,1.60
2022-12-25T05:06:09.835Z,1.65
2022-12-25T05:08:37.274Z,1.64
2022-12-25T05:11:09.804Z,1.72
2022-12-25T05:13:36.898Z,1.72
2022-12-25T05:16:08.643Z,1.77
2022-12-25T05:18:36.120Z,1.85
2022-12-25T05:21:03.985Z,1.85
2022-12-25T05:23:31.195Z,1.89
2022-12-25T05:25:58.434Z,1.91
2022-12-25T05:28:25.599Z,1.89
2022-12-25T05:30:56.679Z,1.86
2022-12-25T05:33:23.741Z,1.90
2022-12-25T05:35:50.864Z,1.89
2022-12-25T05:38:17.897Z,1.95
2022-12-25T05:40:45.001Z,1.91
2022-12-25T05:43:12.044Z,1.93
2022-12-25T05:45:39.169Z,1.95
2022-12-25T05:48:06.634Z,2.02
2022-12-25T05:50:39.291Z,2.08
2022-12-25T05:53:08.961Z,2.16
2022-12-25T05:55:36.974Z,2.22
2022-12-25T05:58:05.010Z,2.28
2022-12-25T06:00:32.193Z,2.33
2022-12-25T06:02:59.476Z,2.40
2022-12-25T06:05:26.786Z,2.43
2022-12-25T06:07:53.855Z,2.40
2022-12-25T06:10:21.014Z,2.45
2022-12-25T06:12:48.131Z,2.49
2022-12-25T06:15:15.472Z,2.47
2022-12-25T06:17:42.510Z,2.49
2022-12-25T06:20:09.882Z,2.53
2022-12-25T06:22:36.921Z,2.60
2022-12-25T06:25:04.320Z,2.60
2022-12-25T06:27:31.398Z,2.60
2022-12-25T06:29:58.433Z,2.65
2022-12-25T06:32:25.502Z,2.67
2022-12-25T06:34:52.569Z,2.67
2022-12-25T06:37:19.852Z,2.70
2022-12-25T06:39:47.966Z,2.68
2022-12-25T06:42:14.999Z,2.68
2022-12-25T06:44:42.105Z,2.68
2022-12-25T06:47:09.272Z,2.68
2022-12-25T06:49:36.436Z,2.65
2022-12-25T06:52:03.512Z,2.61
2022-12-25T06:54:30.529Z,2.61
2022-12-25T06:56:57.594Z,2.59
2022-12-25T06:59:25.094Z,2.57
2022-12-25T07:01:58.442Z,2.55
2022-12-25T07:04:35.620Z,2.57
2022-12-25T07:07:08.445Z,2.57
2022-12-25T07:09:38.638Z,2.55
2022-12-25T07:12:21.679Z,2.49
2022-12-25T07:14:50.227Z,2.48
2022-12-25T07:17:17.865Z,2.46
2022-12-25T07:19:46.509Z,2.45
2022-12-25T07:22:14.198Z,2.43
2022-12-25T07:24:41.568Z,2.43
2022-12-25T07:27:09.030Z,2.40
2022-12-25T07:29:36.086Z,2.41
2022-12-25T07:32:03.234Z,2.41
2022-12-25T07:34:30.939Z,2.40
2022-12-25T07:36:57.985Z,2.36
2022-12-25T07:39:25.087Z,2.32
2022-12-25T07:41:52.141Z,2.30
2022-12-25T07:44:19.256Z,2.27
2022-12-25T07:46:46.434Z,2.25
2022-12-25T07:49:13.512Z,2.25
2022-12-25T07:51:40.615Z,2.28
2022-12-25T07:54:07.674Z,2.32
2022-12-25T07:56:34.831Z,2.35
2022-12-25T07:59:01.895Z,2.39
2022-12-25T08:01:29.943Z,2.45
2022-12-25T08:03:59.766Z,2.51
2022-12-25T08:06:30.167Z,2.58
2022-12-25T08:08:58.422Z,2.63
2022-12-25T08:11:25.487Z,2.69
2022-12-25T08:13:52.614Z,2.75
2022-12-25T08:16:19.693Z,2.76
2022-12-25T08:18:46.887Z,2.80
2022-12-25T08:21:15.059Z,2.86
2022-12-25T08:23:43.609Z,2.90
2022-12-25T08:26:13.221Z,2.95
2022-12-25T08:28:40.411Z,2.99
2022-12-25T08:31:18.225Z,3.02
2022-12-25T08:33:45.763Z,3.06
2022-12-25T08:36:13.274Z,3.07
2022-12-25T08:38:40.946Z,3.08
2022-12-25T08:41:08.634Z,3.19
2022-12-25T08:43:36.059Z,3.41
2022-12-25T08:46:03.668Z,3.64
2022-12-25T08:48:30.791Z,3.91
2022-12-25T08:50:57.897Z,4.18
2022-12-25T08:53:25.241Z,4.49
2022-12-25T08:56:06.432Z,4.72
2022-12-25T08:58:33.954Z,4.86
2022-12-25T09:01:01.081Z,4.93
2022-12-25T09:03:28.431Z,5.00
2022-12-25T09:05:55.541Z,5.08
2022-12-25T09:08:22.999Z,5.18
2022-12-25T09:10:50.082Z,5.28
2022-12-25T09:13:17.097Z,5.38
2022-12-25T09:15:44.201Z,5.49
2022-12-25T09:18:11.255Z,5.61
2022-12-25T09:20:38.298Z,5.76
2022-12-25T09:23:11.670Z,5.90
2022-12-25T09:25:40.770Z,6.02
2022-12-25T09:28:07.857Z,6.14
2022-12-25T09:30:34.939Z,6.24
2022-12-25T09:33:02.010Z,6.35
2022-12-25T09:35:29.092Z,6.51
2022-12-25T09:37:56.129Z,6.66
2022-12-25T09:40:24.897Z,6.82
2022-12-25T09:42:53.941Z,6.93
2022-12-25T09:45:34.968Z,7.09
2022-12-25T09:48:02.163Z,7.16
2022-12-25T09:50:49.384Z,7.25
2022-12-25T09:53:20.755Z,7.37
2022-12-25T09:56:12.104Z,7.51
2022-12-25T09:58:39.460Z,7.69
2022-12-25T10:01:16.015Z,7.88
2022-12-25T10:04:18.503Z,8.17
2022-12-25T10:07:00.398Z,8.48
2022-12-25T10:09:55.018Z,8.62
2022-12-25T10:12:32.335Z,8.75
2022-12-25T10:15:16.311Z,8.84
2022-12-25T10:18:17.948Z,8.90
2022-12-25T10:20:52.414Z,9.03
2022-12-25T10:23:23.857Z,9.15
2022-12-25T10:25:51.924Z,9.18
2022-12-25T10:28:30.285Z,9.18
2022-12-25T10:31:00.361Z,9.16
2022-12-25T10:33:27.526Z,9.27
2022-12-25T10:35:54.596Z,9.40
2022-12-25T10:38:22.434Z,9.53
2022-12-25T10:41:21.515Z,9.63
2022-12-25T10:43:57.303Z,9.84
2022-12-25T10:46:26.772Z,9.90
2022-12-25T10:48:56.868Z,10.00
2022-12-25T10:51:37.917Z,10.00
2022-12-25T10:54:24.479Z,9.93
2022-12-25T10:56:56.810Z,9.78
2022-12-25T10:59:26.360Z,9.62
2022-12-25T11:01:55.665Z,9.58
2022-12-25T11:04:26.452Z,9.66
2022-12-25T11:07:02.888Z,9.84
2022-12-25T11:09:29.947Z,10.01
2022-12-25T11:11:57.027Z,10.10
2022-12-25T11:14:24.080Z,10.10
2022-12-25T11:16:51.227Z,10.01
2022-12-25T11:19:30.024Z,9.89
2022-12-25T11:21:59.580Z,9.89
2022-12-25T11:24:28.965Z,9.87
2022-12-25T11:27:01.355Z,9.86
2022-12-25T11:29:36.620Z,9.88
2022-12-25T11:32:05.424Z,9.87
2022-12-25T11:34:41.855Z,9.85
2022-12-25T11:37:14.962Z,9.78
2022-12-25T11:39:42.071Z,9.68
2022-12-25T11:42:18.490Z,9.59
2022-12-25T11:44:51.713Z,9.53
2022-12-25T11:47:26.323Z,9.45
2022-12-25T11:50:01.031Z,9.40
2022-12-25T11:52:33.840Z,9.32
2022-12-25T11:55:10.324Z,9.29
2022-12-25T11:57:37.979Z,9.25
2022-12-25T12:00:09.420Z,9.26
2022-12-25T12:02:45.489Z,9.29
2022-12-25T12:05:39.169Z,9.35
2022-12-25T12:08:06.616Z,9.45
2022-12-25T12:10:48.089Z,9.58
2022-12-25T12:13:47.664Z,9.69
2022-12-25T12:16:14.790Z,9.80
2022-12-25T12:18:48.093Z,9.94
2022-12-25T12:21:27.189Z,10.07
2022-12-25T12:24:05.472Z,10.18
2022-12-25T12:26:40.786Z,10.27
2022-12-25T12:29:22.038Z,10.25
2022-12-25T12:31:49.943Z,10.23
2022-12-25T12:34:20.825Z,10.26
2022-12-25T12:36:49.087Z,10.24
2022-12-25T12:39:25.782Z,10.19
2022-12-25T12:41:52.890Z,10.17
2022-12-25T12:44:20.416Z,10.10
2022-12-25T12:46:53.733Z,10.08
2022-12-25T12:49:23.336Z,10.07
2022-12-25T12:51:51.107Z,10.07
2022-12-25T12:54:25.753Z,10.09
2022-12-25T12:57:09.448Z,10.14
2022-12-25T12:59:43.549Z,10.16
2022-12-25T13:02:42.966Z,10.19
2022-12-25T13:05:34.178Z,10.17
2022-12-25T13:08:14.123Z,10.16
2022-12-25T13:10:49.228Z,10.14
2022-12-25T13:13:29.114Z,10.09
2022-12-25T13:15:57.888Z,10.07
2022-12-25T13:18:24.995Z,10.08
2022-12-25T13:21:00.976Z,10.08
2022-12-25T13:23:33.300Z,10.09
2022-12-25T13:26:01.435Z,10.09
2022-12-25T13:28:33.504Z,10.08
2022-12-25T13:31:09.727Z,10.07
2022-12-25T13:33:38.660Z,10.05
2022-12-25T13:36:10.476Z,10.05
2022-12-25T13:38:38.584Z,10.07
2022-12-25T13:41:24.308Z,10.09
2022-12-25T13:43:51.398Z,10.14
2022-12-25T13:46:26.257Z,10.11
2022-12-25T13:49:00.693Z,10.07
2022-12-25T13:51:28.403Z,10.07
2022-12-25T13:54:06.719Z,10.06
2022-12-25T13:56:34.920Z,9.99
2022-12-25T13:59:03.592Z,10.00
2022-12-25T14:01:30.784Z,9.91
2022-12-25T14:03:57.905Z,9.87
2022-12-25T14:06:27.698Z,9.80
2022-12-25T14:08:55.984Z,9.79
2022-12-25T14:11:25.066Z,9.80
2022-12-25T14:13:54.665Z,9.81
2022-12-25T14:16:21.980Z,9.81
2022-12-25T14:18:58.067Z,9.81
2022-12-25T14:21:29.130Z,9.83
2022-12-25T14:23:56.520Z,9.83
2022-12-25T14:26:26.541Z,9.88
2022-12-25T14:29:05.735Z,9.91
2022-12-25T14:31:33.266Z,9.91
2022-12-25T14:34:01.559Z,9.88
2022-12-25T14:36:29.278Z,9.84
2022-12-25T14:39:01.685Z,9.74
2022-12-25T14:41:34.498Z,9.69
2022-12-25T14:44:03.488Z,9.66
2022-12-25T14:46:32.239Z,9.64
2022-12-25T14:49:07.249Z,9.62
2022-12-25T14:51:38.167Z,9.54
2022-12-25T14:54:13.569Z,9.51
2022-12-25T14:56:46.738Z,9.49
2022-12-25T14:59:17.358Z,9.47
2022-12-25T15:01:50.439Z,9.46
2022-12-25T15:04:18.377Z,9.48
2022-12-25T15:07:07.195Z,9.52
2022-12-25T15:09:35.890Z,9.49
2022-12-25T15:12:03.016Z,9.54
2022-12-25T15:14:31.507Z,9.60
2022-12-25T15:17:00.825Z,9.60
2022-12-25T15:19:36.467Z,9.60
2022-12-25T15:22:04.807Z,9.64
2022-12-25T15:24:32.057Z,9.68
2022-12-25T15:27:00.632Z,9.70
2022-12-25T15:30:07.219Z,9.71
2022-12-25T15:32:20.257Z,9.70
2022-12-25T15:34:49.851Z,9.72
2022-12-25T15:37:17.905Z,9.73
2022-12-25T15:39:45.347Z,9.73
2022-12-25T15:42:17.910Z,9.74
2022-12-25T15:44:45.386Z,9.74
2022-12-25T15:47:13.806Z,9.77
2022-12-25T15:49:41.345Z,9.77
2022-12-25T15:52:11.471Z,9.76
2022-12-25T15:54:38.608Z,9.74
2022-12-25T15:57:07.047Z,9.75
2022-12-25T15:59:34.210Z,9.74
2022-12-25T16:02:01.896Z,9.75
2022-12-25T16:04:32.060Z,9.76
2022-12-25T16:06:59.582Z,9.77
2022-12-25T16:09:27.522Z,9.75
2022-12-25T16:11:54.846Z,9.69
2022-12-25T16:14:21.976Z,9.59
2022-12-25T16:16:51.084Z,9.54
2022-12-25T16:19:18.318Z,9.47
2022-12-25T16:21:46.244Z,9.45
2022-12-25T16:24:14.073Z,9.44
2022-12-25T16:26:41.202Z,9.42
2022-12-25T16:29:08.351Z,9.42
2022-12-25T16:31:36.597Z,9.38
2022-12-25T16:34:04.715Z,9.40
2022-12-25T16:36:32.312Z,9.39
2022-12-25T16:38:59.346Z,9.31
2022-12-25T16:41:26.485Z,9.31
2022-12-25T16:43:53.532Z,9.28
2022-12-25T16:46:22.215Z,9.28
2022-12-25T16:48:49.338Z,9.29
2022-12-25T16:51:19.276Z,9.29
2022-12-25T16:53:46.784Z,9.31
2022-12-25T16:56:16.131Z,9.34
2022-12-25T16:58:46.965Z,9.34
2022-12-25T17:01:16.489Z,9.23
2022-12-25T17:03:43.610Z,9.21
2022-12-25T17:06:23.003Z,9.16
2022-12-25T17:08:51.957Z,9.07
2022-12-25T17:11:23.581Z,9.02
2022-12-25T17:13:50.797Z,8.94
2022-12-25T17:16:20.449Z,8.86
2022-12-25T17:18:47.556Z,8.80
2022-12-25T17:21:14.809Z,8.77
2022-12-25T17:23:41.906Z,8.68
2022-12-25T17:26:08.983Z,8.66
2022-12-25T17:28:36.083Z,8.65
2022-12-25T17:31:08.314Z,8.61
2022-12-25T17:33:36.384Z,8.55
2022-12-25T17:36:05.534Z,8.51
2022-12-25T17:38:33.687Z,8.49
2022-12-25T17:41:02.361Z,8.42
2022-12-25T17:43:29.553Z,8.38
2022-12-25T17:45:56.605Z,8.40
2022-12-25T17:48:23.685Z,8.43
2022-12-25T17:50:50.727Z,8.48
2022-12-25T17:53:19.246Z,8.70
2022-12-25T17:55:46.288Z,9.03
2022-12-25T17:58:13.319Z,9.23
2022-12-25T18:00:40.401Z,9.34
2022-12-25T18:03:11.651Z,9.42
2022-12-25T18:05:39.249Z,9.45
2022-12-25T18:08:06.301Z,9.43
2022-12-25T18:10:37.771Z,9.38
2022-12-25T18:13:04.860Z,9.34
2022-12-25T18:15:32.022Z,9.27
2022-12-25T18:17:59.118Z,9.25
2022-12-25T18:20:26.282Z,9.29
2022-12-25T18:22:53.369Z,9.33
2022-12-25T18:25:20.441Z,9.43
2022-12-25T18:27:47.493Z,9.46
2022-12-25T18:30:14.698Z,9.41
2022-12-25T18:32:41.792Z,9.42
2022-12-25T18:35:09.573Z,9.50
2022-12-25T18:37:40.241Z,9.51
2022-12-25T18:40:08.251Z,9.52
2022-12-25T18:42:41.263Z,9.59
2022-12-25T18:45:14.882Z,9.66
2022-12-25T18:47:42.058Z,9.75
2022-12-25T18:50:10.596Z,9.80
2022-12-25T18:52:49.658Z,9.99
2022-12-25T18:55:20.361Z,10.08
2022-12-25T18:57:48.152Z,10.15
2022-12-25T19:00:15.329Z,10.20
2022-12-25T19:02:42.552Z,10.29
2022-12-25T19:05:09.743Z,10.33
2022-12-25T19:07:38.395Z,10.35
2022-12-25T19:10:06.218Z,10.42
2022-12-25T19:12:33.319Z,10.45
2022-12-25T19:15:02.434Z,10.47
2022-12-25T19:17:31.776Z,10.48
2022-12-25T19:19:59.359Z,10.50
2022-12-25T19:22:26.425Z,10.49
2022-12-25T19:24:53.504Z,10.44
2022-12-25T19:27:20.545Z,10.44
2022-12-25T19:29:47.580Z,10.46
2022-12-25T19:32:14.689Z,10.45
2022-12-25T19:34:41.754Z,10.44
2022-12-25T19:37:08.805Z,10.42
2022-12-25T19:39:35.861Z,10.45
2022-12-25T19:42:02.905Z,10.45
2022-12-25T19:44:30.122Z,10.45
2022-12-25T19:46:57.206Z,10.48
2022-12-25T19:49:24.235Z,10.46
2022-12-25T19:51:51.278Z,10.46
2022-12-25T19:54:20.622Z,10.45
2022-12-25T19:56:48.265Z,10.47
2022-12-25T19:59:15.588Z,10.48
2022-12-25T20:01:43.376Z,10.50
2022-12-25T20:04:11.143Z,10.50
2022-12-25T20:06:39.276Z,10.49
2022-12-25T20:09:15.035Z,10.47
2022-12-25T20:11:43.482Z,10.49
2022-12-25T20:14:13.025Z,10.48
2022-12-25T20:16:40.471Z,10.53
2022-12-25T20:19:08.199Z,10.54
2022-12-25T20:21:35.481Z,10.54
2022-12-25T20:24:02.608Z,10.57
2022-12-25T20:26:30.637Z,10.58
2022-12-25T20:28:58.693Z,10.59
2022-12-25T20:31:28.327Z,10.62
2022-12-25T20:33:57.402Z,10.61
2022-12-25T20:36:24.704Z,10.60
2022-12-25T20:38:52.508Z,10.60
2022-12-25T20:41:26.735Z,10.63
2022-12-25T20:43:55.093Z,10.63
2022-12-25T20:46:22.937Z,10.71
2022-12-25T20:48:50.100Z,10.75
2022-12-25T20:51:22.259Z,10.80
2022-12-25T20:53:50.076Z,10.82
2022-12-25T20:56:19.823Z,10.81
2022-12-25T20:58:47.224Z,10.84
2022-12-25T21:01:17.415Z,10.87
2022-12-25T21:03:45.315Z,10.89
2022-12-25T21:06:12.553Z,10.94
2022-12-25T21:08:41.005Z,10.97
2022-12-25T21:11:08.963Z,11.03
2022-12-25T21:13:38.684Z,11.04
2022-12-25T21:16:08.305Z,11.06
2022-12-25T21:18:35.476Z,11.13
2022-12-25T21:21:05.744Z,11.15
2022-12-25T21:23:37.260Z,11.18
2022-12-25T21:26:18.363Z,11.19
2022-12-25T21:28:46.835Z,11.17
2022-12-25T21:31:14.100Z,11.14
2022-12-25T21:33:53.475Z,11.13
2022-12-25T21:36:33.611Z,11.12
2022-12-25T21:39:05.596Z,11.08
2022-12-25T21:41:34.150Z,11.07
2022-12-25T21:44:02.836Z,11.07
2022-12-25T21:46:30.301Z,11.05
2022-12-25T21:48:57.848Z,11.02
2022-12-25T21:51:51.153Z,10.99
2022-12-25T21:54:19.605Z,10.94
2022-12-25T21:56:47.631Z,10.94
2022-12-25T21:59:16.909Z,10.93
2022-12-25T22:01:44.851Z,10.90
2022-12-25T22:04:13.621Z,10.89
2022-12-25T22:07:00.200Z,10.89
2022-12-25T22:09:27.574Z,10.88
2022-12-25T22:12:13.044Z,10.87
2022-12-25T22:14:57.115Z,10.87
2022-12-25T22:17:47.727Z,10.86
2022-12-25T22:20:23.179Z,10.88
2022-12-25T22:22:50.580Z,10.88
2022-12-25T22:25:17.922Z,10.85
2022-12-25T22:27:45.665Z,10.84
2022-12-25T22:30:15.731Z,10.82
2022-12-25T22:32:42.918Z,10.81
2022-12-25T22:35:12.607Z,10.76
2022-12-25T22:37:41.140Z,10.75
2022-12-25T22:40:10.060Z,10.75
2022-12-25T22:42:37.923Z,10.71
2022-12-25T22:45:05.355Z,10.67
2022-12-25T22:47:32.440Z,10.69
2022-12-25T22:50:00.800Z,10.69
2022-12-25T22:52:27.870Z,10.68
2022-12-25T22:54:54.942Z,10.67
2022-12-25T22:57:22.046Z,10.62
2022-12-25T22:59:51.896Z,10.59
2022-12-25T23:02:19.273Z,10.55
2022-12-25T23:04:46.544Z,10.55
2022-12-25T23:07:14.605Z,10.55
2022-12-25T23:09:42.878Z,10.53
2022-12-25T23:12:30.732Z,10.54
2022-12-25T23:14:57.918Z,10.55
2022-12-25T23:17:44.273Z,10.53
2022-12-25T23:20:32.902Z,10.53
2022-12-25T23:23:19.262Z,10.53
2022-12-25T23:26:05.296Z,10.53
2022-12-25T23:28:50.647Z,10.50
2022-12-25T23:31:18.131Z,10.51
2022-12-25T23:33:45.212Z,10.50
2022-12-25T23:36:12.284Z,10.53
2022-12-25T23:38:39.599Z,10.53
2022-12-25T23:41:07.953Z,10.49
2022-12-25T23:43:34.991Z,10.50
2022-12-25T23:46:02.103Z,10.48
2022-12-25T23:48:29.361Z,10.50
2022-12-25T23:50:56.585Z,10.47
2022-12-25T23:53:23.689Z,10.43
2022-12-25T23:55:55.641Z,10.45
2022-12-25T23:58:24.135Z,10.46
